Captiva, Florida
Current Conditions -  °F | °C
As of 1:53 AM on Monday 22 Dec 2014 (Local Time) from KFMY Reporting Station
Broken Clouds Broken Clouds  
Wind Chill: 69°   Ceiling: 12000
Heat Index: 69°   Visibility: 10mi
Dew Point: 67°   Wind: 3mph
Humidity: 93%   Direction: 150°SSE
Pressure: 30.02"   Gusts: NA
Location:  26.52°N, 82.19°W
Report Text: KFMY 220653Z AUTO 15003KT 10SM SCT065 BKN120 21/19 A3002 RMK AO2 SLP169 T02060194
Loading
Personal Weather Stations






























Interactive Weather Map New forecast layout! Learn more

10-Day Weather Forecast

Advertisements
Track Severe Weather on mobile